sensor_id;sensor_type;location;lat;lon;timestamp;pressure;altitude;pressure_sealevel;temperature;humidity
32033;BME280;31720;52.638;9.216;2023-03-23T00:01:42;100112.19;;;10.66;100.00
32033;BME280;31720;52.638;9.216;2023-03-23T00:04:44;100108.28;;;10.59;100.00
32033;BME280;31720;52.638;9.216;2023-03-23T00:07:45;100115.94;;;10.62;100.00
32033;BME280;31720;52.638;9.216;2023-03-23T00:10:49;100105.72;;;10.57;100.00
32033;BME280;31720;52.638;9.216;2023-03-23T00:13:52;100098.16;;;10.53;100.00
32033;BME280;31720;52.638;9.216;2023-03-23T00:16:54;100092.16;;;10.51;100.00
32033;BME280;31720;52.638;9.216;2023-03-23T00:19:56;100087.84;;;10.50;100.00
32033;BME280;31720;52.638;9.216;2023-03-23T00:22:57;100081.75;;;10.49;100.00
32033;BME280;31720;52.638;9.216;2023-03-23T00:26:01;100084.38;;;10.49;100.00
32033;BME280;31720;52.638;9.216;2023-03-23T00:29:03;100086.91;;;10.51;100.00
32033;BME280;31720;52.638;9.216;2023-03-23T00:32:05;100086.06;;;10.50;100.00
32033;BME280;31720;52.638;9.216;2023-03-23T00:35:07;100075.56;;;10.50;100.00
32033;BME280;31720;52.638;9.216;2023-03-23T00:38:09;100071.53;;;10.45;100.00
32033;BME280;31720;52.638;9.216;2023-03-23T00:41:12;100083.06;;;10.42;100.00
32033;BME280;31720;52.638;9.216;2023-03-23T00:44:15;100075.09;;;10.44;100.00
32033;BME280;31720;52.638;9.216;2023-03-23T00:47:17;100057.06;;;10.52;100.00
32033;BME280;31720;52.638;9.216;2023-03-23T00:50:18;100060.94;;;10.46;100.00
32033;BME280;31720;52.638;9.216;2023-03-23T00:53:19;100055.31;;;10.38;100.00
32033;BME280;31720;52.638;9.216;2023-03-23T00:56:22;100049.22;;;10.37;100.00
32033;BME280;31720;52.638;9.216;2023-03-23T00:59:23;100043.13;;;10.37;100.00
32033;BME280;31720;52.638;9.216;2023-03-23T01:02:25;100053.63;;;10.37;100.00
32033;BME280;31720;52.638;9.216;2023-03-23T01:05:26;100040.69;;;10.34;100.00
32033;BME280;31720;52.638;9.216;2023-03-23T01:08:31;100029.22;;;10.35;100.00
32033;BME280;31720;52.638;9.216;2023-03-23T01:11:34;100033.88;;;10.31;100.00
32033;BME280;31720;52.638;9.216;2023-03-23T01:14:36;100027.38;;;10.37;100.00
32033;BME280;31720;52.638;9.216;2023-03-23T01:17:37;100021.47;;;10.33;100.00
32033;BME280;31720;52.638;9.216;2023-03-23T01:20:38;100009.53;;;10.42;100.00
32033;BME280;31720;52.638;9.216;2023-03-23T01:23:42;100020.22;;;10.39;100.00
32033;BME280;31720;52.638;9.216;2023-03-23T01:26:45;100009.53;;;10.42;100.00
32033;BME280;31720;52.638;9.216;2023-03-23T01:29:46;100016.47;;;10.43;100.00
32033;BME280;31720;52.638;9.216;2023-03-23T01:32:48;100015.81;;;10.39;100.00
32033;BME280;31720;52.638;9.216;2023-03-23T01:35:49;100007.84;;;10.41;100.00
32033;BME280;31720;52.638;9.216;2023-03-23T01:38:51;100007.75;;;10.43;100.00
32033;BME280;31720;52.638;9.216;2023-03-23T01:41:53;100011.84;;;10.47;100.00
32033;BME280;31720;52.638;9.216;2023-03-23T01:45:27;100000.41;;;10.48;100.00
32033;BME280;31720;52.638;9.216;2023-03-23T01:48:31;100012.09;;;10.56;100.00
32033;BME280;31720;52.638;9.216;2023-03-23T01:51:36;100006.19;;;10.53;100.00
32033;BME280;31720;52.638;9.216;2023-03-23T01:54:39;100000.63;;;10.57;100.00
32033;BME280;31720;52.638;9.216;2023-03-23T01:57:47;100009.34;;;10.58;100.00
32033;BME280;31720;52.638;9.216;2023-03-23T02:00:48;100010.97;;;10.60;100.00
32033;BME280;31720;52.638;9.216;2023-03-23T02:03:51;100002.94;;;10.49;100.00
32033;BME280;31720;52.638;9.216;2023-03-23T02:06:54;100007.03;;;10.53;100.00
32033;BME280;31720;52.638;9.216;2023-03-23T02:09:56;99998.66;;;10.61;100.00
32033;BME280;31720;52.638;9.216;2023-03-23T02:13:00;100000.09;;;10.52;100.00
32033;BME280;31720;52.638;9.216;2023-03-23T02:16:07;99981.94;;;10.49;100.00
32033;BME280;31720;52.638;9.216;2023-03-23T02:19:28;99985.78;;;10.44;100.00
32033;BME280;31720;52.638;9.216;2023-03-23T02:22:47;99984.44;;;10.51;100.00
32033;BME280;31720;52.638;9.216;2023-03-23T02:25:58;99968.81;;;10.49;100.00
32033;BME280;31720;52.638;9.216;2023-03-23T02:29:16;99960.91;;;10.49;100.00
32033;BME280;31720;52.638;9.216;2023-03-23T02:32:52;99958.47;;;10.46;100.00
32033;BME280;31720;52.638;9.216;2023-03-23T02:36:07;99946.19;;;10.47;100.00
32033;BME280;31720;52.638;9.216;2023-03-23T02:39:14;99954.19;;;10.45;100.00
32033;BME280;31720;52.638;9.216;2023-03-23T02:42:21;99956.50;;;10.50;100.00
32033;BME280;31720;52.638;9.216;2023-03-23T02:45:25;99974.06;;;10.49;100.00
32033;BME280;31720;52.638;9.216;2023-03-23T02:48:30;99974.88;;;10.50;100.00
32033;BME280;31720;52.638;9.216;2023-03-23T02:51:34;99956.50;;;10.50;100.00
32033;BME280;31720;52.638;9.216;2023-03-23T02:54:36;99950.50;;;10.48;100.00
32033;BME280;31720;52.638;9.216;2023-03-23T02:57:39;99940.19;;;10.45;100.00
32033;BME280;31720;52.638;9.216;2023-03-23T03:00:40;99926.75;;;10.49;100.00
32033;BME280;31720;52.638;9.216;2023-03-23T03:03:42;99923.84;;;10.54;100.00
32033;BME280;31720;52.638;9.216;2023-03-23T03:06:51;99938.66;;;10.55;100.00
32033;BME280;31720;52.638;9.216;2023-03-23T03:09:58;99920.91;;;10.58;100.00
32033;BME280;31720;52.638;9.216;2023-03-23T03:13:06;99938.34;;;10.59;100.00
32033;BME280;31720;52.638;9.216;2023-03-23T03:16:18;99920.69;;;10.61;100.00
32033;BME280;31720;52.638;9.216;2023-03-23T03:19:26;99918.06;;;10.61;100.00
32033;BME280;31720;52.638;9.216;2023-03-23T03:22:29;99913.63;;;10.62;100.00
32033;BME280;31720;52.638;9.216;2023-03-23T03:25:31;99911.84;;;10.62;100.00
32033;BME280;31720;52.638;9.216;2023-03-23T03:28:33;99931.00;;;10.64;100.00
32033;BME280;31720;52.638;9.216;2023-03-23T03:31:38;99915.94;;;10.66;100.00
32033;BME280;31720;52.638;9.216;2023-03-23T03:34:40;99910.09;;;10.63;100.00
32033;BME280;31720;52.638;9.216;2023-03-23T03:37:44;99913.03;;;10.58;100.00
32033;BME280;31720;52.638;9.216;2023-03-23T03:40:46;99900.94;;;10.69;100.00
32033;BME280;31720;52.638;9.216;2023-03-23T03:43:47;99890.50;;;10.67;100.00
32033;BME280;31720;52.638;9.216;2023-03-23T03:46:49;99885.19;;;10.69;100.00
32033;BME280;31720;52.638;9.216;2023-03-23T03:49:50;99887.47;;;10.60;100.00
32033;BME280;31720;52.638;9.216;2023-03-23T03:52:53;99879.38;;;10.63;100.00
32033;BME280;31720;52.638;9.216;2023-03-23T03:55:54;99878.13;;;10.69;100.00
32033;BME280;31720;52.638;9.216;2023-03-23T03:58:59;99866.78;;;10.69;100.00
32033;BME280;31720;52.638;9.216;2023-03-23T04:02:02;99866.88;;;10.67;100.00
32033;BME280;31720;52.638;9.216;2023-03-23T04:05:04;99874.03;;;10.65;100.00
32033;BME280;31720;52.638;9.216;2023-03-23T04:08:07;99865.41;;;10.63;100.00
32033;BME280;31720;52.638;9.216;2023-03-23T04:11:10;99875.06;;;10.62;100.00
32033;BME280;31720;52.638;9.216;2023-03-23T04:14:12;99870.34;;;10.68;100.00
32033;BME280;31720;52.638;9.216;2023-03-23T04:17:13;99858.38;;;10.63;100.00
32033;BME280;31720;52.638;9.216;2023-03-23T04:20:17;99863.50;;;10.65;100.00
32033;BME280;31720;52.638;9.216;2023-03-23T04:23:20;99881.47;;;10.71;100.00
32033;BME280;31720;52.638;9.216;2023-03-23T04:26:22;99877.50;;;10.78;100.00
32033;BME280;31720;52.638;9.216;2023-03-23T04:29:23;99881.16;;;10.76;100.00
32033;BME280;31720;52.638;9.216;2023-03-23T04:32:25;99864.88;;;10.71;100.00
32033;BME280;31720;52.638;9.216;2023-03-23T04:35:29;99872.88;;;10.69;100.00
32033;BME280;31720;52.638;9.216;2023-03-23T04:38:32;99869.81;;;10.75;100.00
32033;BME280;31720;52.638;9.216;2023-03-23T04:41:34;99869.09;;;10.73;100.00
32033;BME280;31720;52.638;9.216;2023-03-23T04:44:35;99867.50;;;10.71;100.00
32033;BME280;31720;52.638;9.216;2023-03-23T04:47:37;99874.88;;;10.78;100.00
32033;BME280;31720;52.638;9.216;2023-03-23T04:50:40;99873.28;;;10.76;100.00
32033;BME280;31720;52.638;9.216;2023-03-23T04:53:43;99883.78;;;10.76;100.00
32033;BME280;31720;52.638;9.216;2023-03-23T04:56:44;99877.38;;;10.80;100.00
32033;BME280;31720;52.638;9.216;2023-03-23T04:59:45;99882.56;;;10.81;100.00
32033;BME280;31720;52.638;9.216;2023-03-23T05:02:47;99880.78;;;10.82;100.00
32033;BME280;31720;52.638;9.216;2023-03-23T05:05:51;99876.97;;;10.73;100.00
32033;BME280;31720;52.638;9.216;2023-03-23T05:08:54;99882.44;;;10.70;100.00
32033;BME280;31720;52.638;9.216;2023-03-23T05:11:56;99868.34;;;10.71;100.00
32033;BME280;31720;52.638;9.216;2023-03-23T05:14:59;99874.56;;;10.70;100.00
32033;BME280;31720;52.638;9.216;2023-03-23T05:18:01;99873.06;;;10.66;100.00
32033;BME280;31720;52.638;9.216;2023-03-23T05:21:03;99871.28;;;10.66;100.00
32033;BME280;31720;52.638;9.216;2023-03-23T05:24:06;99874.44;;;10.72;100.00
32033;BME280;31720;52.638;9.216;2023-03-23T05:27:08;99869.19;;;10.72;100.00
32033;BME280;31720;52.638;9.216;2023-03-23T05:30:10;99879.50;;;10.75;100.00
32033;BME280;31720;52.638;9.216;2023-03-23T05:33:11;99872.44;;;10.75;100.00
32033;BME280;31720;52.638;9.216;2023-03-23T05:36:13;99863.00;;;10.73;100.00
32033;BME280;31720;52.638;9.216;2023-03-23T05:39:16;99869.72;;;10.77;100.00
32033;BME280;31720;52.638;9.216;2023-03-23T05:42:17;99864.47;;;10.77;100.00
32033;BME280;31720;52.638;9.216;2023-03-23T05:45:19;99856.47;;;10.78;100.00
32033;BME280;31720;52.638;9.216;2023-03-23T05:48:20;99853.84;;;10.78;100.00
32033;BME280;31720;52.638;9.216;2023-03-23T05:51:21;99853.41;;;10.84;100.00
32033;BME280;31720;52.638;9.216;2023-03-23T05:54:24;99864.38;;;10.91;100.00
32033;BME280;31720;52.638;9.216;2023-03-23T05:57:25;99861.81;;;10.89;100.00
32033;BME280;31720;52.638;9.216;2023-03-23T06:00:27;99865.84;;;10.95;100.00
32033;BME280;31720;52.638;9.216;2023-03-23T06:03:30;99865.94;;;10.93;100.00
32033;BME280;31720;52.638;9.216;2023-03-23T06:06:31;99876.44;;;10.93;100.00
32033;BME280;31720;52.638;9.216;2023-03-23T06:09:34;99872.84;;;11.07;100.00
32033;BME280;31720;52.638;9.216;2023-03-23T06:12:36;99864.06;;;11.08;100.00
32033;BME280;31720;52.638;9.216;2023-03-23T06:15:38;99882.03;;;11.14;100.00
32033;BME280;31720;52.638;9.216;2023-03-23T06:18:40;99878.00;;;11.22;100.00
32033;BME280;31720;52.638;9.216;2023-03-23T06:21:42;99882.66;;;11.05;100.00
32033;BME280;31720;52.638;9.216;2023-03-23T06:24:45;99879.19;;;11.05;100.00
32033;BME280;31720;52.638;9.216;2023-03-23T06:27:47;99879.81;;;10.96;100.00
32033;BME280;31720;52.638;9.216;2023-03-23T06:30:48;99885.91;;;10.96;100.00
32033;BME280;31720;52.638;9.216;2023-03-23T06:33:50;99879.19;;;11.05;100.00
32033;BME280;31720;52.638;9.216;2023-03-23T06:36:51;99880.03;;;11.05;100.00
32033;BME280;31720;52.638;9.216;2023-03-23T06:39:54;99878.88;;;11.22;100.00
32033;BME280;31720;52.638;9.216;2023-03-23T06:42:56;99879.69;;;11.23;100.00
32033;BME280;31720;52.638;9.216;2023-03-23T06:45:59;99874.53;;;11.21;100.00
32033;BME280;31720;52.638;9.216;2023-03-23T06:49:00;99885.34;;;11.29;100.00
32033;BME280;31720;52.638;9.216;2023-03-23T06:52:02;99877.03;;;11.35;100.00
32033;BME280;31720;52.638;9.216;2023-03-23T06:55:05;99881.03;;;11.41;100.00
32033;BME280;31720;52.638;9.216;2023-03-23T06:58:08;99875.00;;;11.52;100.00
32033;BME280;31720;52.638;9.216;2023-03-23T07:01:09;99885.41;;;11.53;100.00
32033;BME280;31720;52.638;9.216;2023-03-23T07:04:10;99903.28;;;11.61;100.00
32033;BME280;31720;52.638;9.216;2023-03-23T07:07:12;99888.47;;;11.60;100.00
32033;BME280;31720;52.638;9.216;2023-03-23T07:10:16;99883.00;;;11.63;100.00
32033;BME280;31720;52.638;9.216;2023-03-23T07:13:17;99878.50;;;11.76;100.00
32033;BME280;31720;52.638;9.216;2023-03-23T07:16:18;99890.59;;;11.79;100.00
32033;BME280;31720;52.638;9.216;2023-03-23T07:19:20;99881.13;;;11.76;100.00
32033;BME280;31720;52.638;9.216;2023-03-23T07:22:21;99887.91;;;11.67;100.00
32033;BME280;31720;52.638;9.216;2023-03-23T07:25:24;99888.63;;;11.69;100.00
32033;BME280;31720;52.638;9.216;2023-03-23T07:28:25;99890.59;;;11.79;100.00
32033;BME280;31720;52.638;9.216;2023-03-23T07:31:27;99891.03;;;11.85;100.00
32033;BME280;31720;52.638;9.216;2023-03-23T07:34:28;99891.81;;;11.99;100.00
32033;BME280;31720;52.638;9.216;2023-03-23T07:37:30;99906.84;;;12.09;100.00
32033;BME280;31720;52.638;9.216;2023-03-23T07:40:33;99901.97;;;12.16;100.00
32033;BME280;31720;52.638;9.216;2023-03-23T07:43:35;99891.88;;;12.34;100.00
32033;BME280;31720;52.638;9.216;2023-03-23T07:46:36;99901.78;;;12.30;100.00
32033;BME280;31720;52.638;9.216;2023-03-23T07:49:38;99903.28;;;12.46;100.00
32033;BME280;31720;52.638;9.216;2023-03-23T07:52:40;99908.06;;;12.40;100.00
32033;BME280;31720;52.638;9.216;2023-03-23T07:55:43;99917.88;;;12.38;100.00
32033;BME280;31720;52.638;9.216;2023-03-23T07:58:44;99919.09;;;12.46;100.00
32033;BME280;31720;52.638;9.216;2023-03-23T08:01:46;99922.94;;;12.41;100.00
32033;BME280;31720;52.638;9.216;2023-03-23T08:04:47;99927.00;;;12.46;100.00
32033;BME280;31720;52.638;9.216;2023-03-23T08:07:49;99925.09;;;12.48;100.00
32033;BME280;31720;52.638;9.216;2023-03-23T08:10:53;99936.38;;;12.50;100.00
32033;BME280;31720;52.638;9.216;2023-03-23T08:13:54;99937.59;;;12.57;100.00
32033;BME280;31720;52.638;9.216;2023-03-23T08:16:56;99934.72;;;12.60;100.00
32033;BME280;31720;52.638;9.216;2023-03-23T08:19:58;99956.53;;;12.62;100.00
32033;BME280;31720;52.638;9.216;2023-03-23T08:23:00;99948.41;;;12.65;100.00
32033;BME280;31720;52.638;9.216;2023-03-23T08:26:05;99944.94;;;12.64;100.00
32033;BME280;31720;52.638;9.216;2023-03-23T08:29:07;99965.19;;;12.64;100.00
32033;BME280;31720;52.638;9.216;2023-03-23T08:32:09;99949.38;;;12.64;100.00
32033;BME280;31720;52.638;9.216;2023-03-23T08:35:12;99949.81;;;12.58;100.00
32033;BME280;31720;52.638;9.216;2023-03-23T08:38:14;99950.75;;;12.57;100.00
32033;BME280;31720;52.638;9.216;2023-03-23T08:41:16;99954.03;;;12.60;100.00
32033;BME280;31720;52.638;9.216;2023-03-23T08:44:18;99943.50;;;12.72;100.00
32033;BME280;31720;52.638;9.216;2023-03-23T08:47:19;99955.25;;;12.67;100.00
32033;BME280;31720;52.638;9.216;2023-03-23T08:50:23;99957.91;;;12.67;100.00
32033;BME280;31720;52.638;9.216;2023-03-23T08:53:25;99956.47;;;12.75;100.00
32033;BME280;31720;52.638;9.216;2023-03-23T08:56:31;99958.25;;;12.74;100.00
32033;BME280;31720;52.638;9.216;2023-03-23T08:59:32;99946.53;;;12.78;100.00
32033;BME280;31720;52.638;9.216;2023-03-23T09:02:34;99963.41;;;12.76;100.00
32033;BME280;31720;52.638;9.216;2023-03-23T09:05:35;99950.47;;;12.73;100.00
32033;BME280;31720;52.638;9.216;2023-03-23T09:08:39;99948.44;;;12.76;100.00
32033;BME280;31720;52.638;9.216;2023-03-23T09:11:42;99958.63;;;12.81;100.00
32033;BME280;31720;52.638;9.216;2023-03-23T09:14:43;99959.50;;;12.81;100.00
32033;BME280;31720;52.638;9.216;2023-03-23T09:17:46;99965.47;;;12.72;100.00
32033;BME280;31720;52.638;9.216;2023-03-23T09:20:49;99959.25;;;12.49;100.00
32033;BME280;31720;52.638;9.216;2023-03-23T09:23:51;99960.69;;;12.29;100.00
32033;BME280;31720;52.638;9.216;2023-03-23T09:26:54;99969.94;;;12.11;100.00
32033;BME280;31720;52.638;9.216;2023-03-23T09:29:55;99961.34;;;11.96;100.00
32033;BME280;31720;52.638;9.216;2023-03-23T09:32:58;99972.72;;;11.97;100.00
32033;BME280;31720;52.638;9.216;2023-03-23T09:36:00;99994.41;;;12.13;100.00
32033;BME280;31720;52.638;9.216;2023-03-23T09:39:04;99992.88;;;12.22;100.00
32033;BME280;31720;52.638;9.216;2023-03-23T09:42:24;100003.94;;;12.27;100.00
32033;BME280;31720;52.638;9.216;2023-03-23T09:45:36;100028.84;;;12.10;100.00
32033;BME280;31720;52.638;9.216;2023-03-23T09:48:46;100016.88;;;11.42;100.00
32033;BME280;31720;52.638;9.216;2023-03-23T09:51:51;100026.09;;;10.97;100.00
32033;BME280;31720;52.638;9.216;2023-03-23T09:54:54;100049.03;;;10.68;100.00
32033;BME280;31720;52.638;9.216;2023-03-23T09:57:59;100059.56;;;10.53;100.00
32033;BME280;31720;52.638;9.216;2023-03-23T10:01:06;100049.03;;;10.40;100.00
32033;BME280;31720;52.638;9.216;2023-03-23T10:04:12;100067.50;;;10.39;100.00
32033;BME280;31720;52.638;9.216;2023-03-23T10:07:19;100066.41;;;10.14;100.00
32033;BME280;31720;52.638;9.216;2023-03-23T10:10:24;100090.97;;;9.99;100.00
32033;BME280;31720;52.638;9.216;2023-03-23T10:13:50;100077.00;;;9.84;100.00
32033;BME280;31720;52.638;9.216;2023-03-23T10:16:59;100080.75;;;9.80;100.00
32033;BME280;31720;52.638;9.216;2023-03-23T10:20:17;100077.19;;;9.81;100.00
32033;BME280;31720;52.638;9.216;2023-03-23T10:23:54;100071.38;;;9.76;100.00
32033;BME280;31720;52.638;9.216;2023-03-23T10:27:05;100099.66;;;9.71;100.00
32033;BME280;31720;52.638;9.216;2023-03-23T10:30:15;100094.91;;;9.63;100.00
32033;BME280;31720;52.638;9.216;2023-03-23T10:33:28;100079.59;;;9.56;100.00
32033;BME280;31720;52.638;9.216;2023-03-23T10:36:34;100106.22;;;9.64;100.00
32033;BME280;31720;52.638;9.216;2023-03-23T10:39:43;100084.97;;;9.69;100.00
32033;BME280;31720;52.638;9.216;2023-03-23T10:42:47;100084.31;;;9.65;100.00
32033;BME280;31720;52.638;9.216;2023-03-23T10:45:55;100078.88;;;9.68;100.00
32033;BME280;31720;52.638;9.216;2023-03-23T10:48:58;100080.28;;;9.74;100.00
32033;BME280;31720;52.638;9.216;2023-03-23T10:52:04;100076.72;;;9.75;100.00
32033;BME280;31720;52.638;9.216;2023-03-23T10:55:08;100080.84;;;9.93;100.00
32033;BME280;31720;52.638;9.216;2023-03-23T10:58:12;100088.16;;;10.02;100.00
32033;BME280;31720;52.638;9.216;2023-03-23T11:01:18;100085.16;;;10.08;100.00
32033;BME280;31720;52.638;9.216;2023-03-23T11:04:20;100094.44;;;10.28;100.00
32033;BME280;31720;52.638;9.216;2023-03-23T11:07:26;100092.91;;;10.38;100.00
32033;BME280;31720;52.638;9.216;2023-03-23T11:10:35;100088.78;;;10.34;100.00
32033;BME280;31720;52.638;9.216;2023-03-23T11:13:39;100107.94;;;10.36;100.00
32033;BME280;31720;52.638;9.216;2023-03-23T11:16:46;100129.44;;;10.29;100.00
32033;BME280;31720;52.638;9.216;2023-03-23T11:19:51;100143.50;;;10.28;100.00
32033;BME280;31720;52.638;9.216;2023-03-23T11:22:54;100137.66;;;10.23;100.00
32033;BME280;31720;52.638;9.216;2023-03-23T11:26:00;100137.75;;;10.21;100.00
32033;BME280;31720;52.638;9.216;2023-03-23T11:29:05;100139.81;;;10.16;100.00
32033;BME280;31720;52.638;9.216;2023-03-23T11:32:12;100138.31;;;10.26;100.00
32033;BME280;31720;52.638;9.216;2023-03-23T11:35:17;100138.25;;;10.28;100.00
32033;BME280;31720;52.638;9.216;2023-03-23T11:38:21;100140.66;;;10.31;100.00
32033;BME280;31720;52.638;9.216;2023-03-23T11:41:32;100123.06;;;10.33;100.00
32033;BME280;31720;52.638;9.216;2023-03-23T11:44:40;100116.84;;;10.20;100.00
32033;BME280;31720;52.638;9.216;2023-03-23T11:47:49;100104.28;;;10.25;100.00
32033;BME280;31720;52.638;9.216;2023-03-23T11:50:56;100102.03;;;10.33;100.00
32033;BME280;31720;52.638;9.216;2023-03-23T11:54:02;100113.94;;;10.38;100.00
32033;BME280;31720;52.638;9.216;2023-03-23T11:57:06;100108.47;;;10.56;100.00
32033;BME280;31720;52.638;9.216;2023-03-23T12:00:15;100114.78;;;10.80;100.00
32033;BME280;31720;52.638;9.216;2023-03-23T12:03:19;100111.47;;;10.91;100.00
32033;BME280;31720;52.638;9.216;2023-03-23T12:06:28;100116.06;;;10.87;100.00
32033;BME280;31720;52.638;9.216;2023-03-23T12:09:42;100124.69;;;10.89;100.00
32033;BME280;31720;52.638;9.216;2023-03-23T12:12:47;100126.84;;;10.97;100.00
32033;BME280;31720;52.638;9.216;2023-03-23T12:15:53;100119.44;;;10.89;100.00
32033;BME280;31720;52.638;9.216;2023-03-23T12:19:08;100119.72;;;10.99;100.00
32033;BME280;31720;52.638;9.216;2023-03-23T12:22:22;100106.56;;;10.99;100.00
32033;BME280;31720;52.638;9.216;2023-03-23T12:25:59;100104.78;;;11.00;100.00
32033;BME280;31720;52.638;9.216;2023-03-23T12:29:14;100098.88;;;10.96;100.00
32033;BME280;31720;52.638;9.216;2023-03-23T12:32:38;100108.31;;;10.99;100.00
32033;BME280;31720;52.638;9.216;2023-03-23T12:35:50;100113.94;;;11.07;100.00
32033;BME280;31720;52.638;9.216;2023-03-23T12:39:13;100109.44;;;11.09;100.00
32033;BME280;31720;52.638;9.216;2023-03-23T12:42:21;100125.53;;;11.17;100.00
32033;BME280;31720;52.638;9.216;2023-03-23T12:45:41;100111.00;;;11.11;100.00
32033;BME280;31720;52.638;9.216;2023-03-23T12:48:48;100115.56;;;11.22;100.00
32033;BME280;31720;52.638;9.216;2023-03-23T12:51:57;100117.03;;;11.26;100.00
32033;BME280;31720;52.638;9.216;2023-03-23T12:55:02;100115.44;;;11.24;100.00
32033;BME280;31720;52.638;9.216;2023-03-23T12:58:07;100111.03;;;11.24;100.00
32033;BME280;31720;52.638;9.216;2023-03-23T13:01:12;100105.59;;;11.27;100.00
32033;BME280;31720;52.638;9.216;2023-03-23T13:04:21;100116.63;;;11.32;100.00
32033;BME280;31720;52.638;9.216;2023-03-23T13:07:26;100100.22;;;11.41;100.00
32033;BME280;31720;52.638;9.216;2023-03-23T13:10:32;100095.53;;;11.59;100.00
32033;BME280;31720;52.638;9.216;2023-03-23T13:13:43;100098.16;;;11.98;100.00
32033;BME280;31720;52.638;9.216;2023-03-23T13:16:50;100104.28;;;11.98;100.00
32033;BME280;31720;52.638;9.216;2023-03-23T13:20:16;100096.81;;;11.92;100.00
32033;BME280;31720;52.638;9.216;2023-03-23T13:23:26;100111.97;;;11.88;100.00
32033;BME280;31720;52.638;9.216;2023-03-23T13:26:29;100092.28;;;11.94;100.00
32033;BME280;31720;52.638;9.216;2023-03-23T13:29:32;100100.47;;;11.89;100.00
32033;BME280;31720;52.638;9.216;2023-03-23T13:32:35;100101.09;;;11.80;100.00
32033;BME280;31720;52.638;9.216;2023-03-23T13:35:39;100107.88;;;11.97;100.00
32033;BME280;31720;52.638;9.216;2023-03-23T13:38:47;100118.28;;;11.99;100.00
32033;BME280;31720;52.638;9.216;2023-03-23T13:42:00;100107.66;;;12.13;100.00
32033;BME280;31720;52.638;9.216;2023-03-23T13:45:17;100112.16;;;12.24;100.00
32033;BME280;31720;52.638;9.216;2023-03-23T13:48:21;100114.78;;;12.36;100.00
32033;BME280;31720;52.638;9.216;2023-03-23T13:51:26;100107.59;;;12.75;100.00
32033;BME280;31720;52.638;9.216;2023-03-23T13:54:41;100101.41;;;13.11;100.00
32033;BME280;31720;52.638;9.216;2023-03-23T13:57:50;100115.31;;;13.37;100.00
32033;BME280;31720;52.638;9.216;2023-03-23T14:01:11;100112.63;;;13.50;100.00
32033;BME280;31720;52.638;9.216;2023-03-23T14:04:17;100112.13;;;13.56;100.00
32033;BME280;31720;52.638;9.216;2023-03-23T14:07:19;100092.81;;;13.67;100.00
32033;BME280;31720;52.638;9.216;2023-03-23T14:10:23;100092.81;;;13.67;100.00
32033;BME280;31720;52.638;9.216;2023-03-23T14:13:29;100079.78;;;13.77;100.00
32033;BME280;31720;52.638;9.216;2023-03-23T14:16:36;100073.78;;;13.97;100.00
32033;BME280;31720;52.638;9.216;2023-03-23T14:19:40;100078.34;;;13.95;100.00
32033;BME280;31720;52.638;9.216;2023-03-23T14:22:42;100084.81;;;14.02;100.00
32033;BME280;31720;52.638;9.216;2023-03-23T14:25:54;100089.38;;;14.11;100.00
32033;BME280;31720;52.638;9.216;2023-03-23T14:28:56;100087.19;;;14.39;100.00
32033;BME280;31720;52.638;9.216;2023-03-23T14:31:58;100086.25;;;14.40;100.00
32033;BME280;31720;52.638;9.216;2023-03-23T14:35:04;100092.75;;;14.58;100.00
32033;BME280;31720;52.638;9.216;2023-03-23T14:38:13;100093.31;;;14.73;100.00
32033;BME280;31720;52.638;9.216;2023-03-23T14:41:17;100092.19;;;14.76;100.00
32033;BME280;31720;52.638;9.216;2023-03-23T14:44:22;100098.31;;;14.87;100.00
32033;BME280;31720;52.638;9.216;2023-03-23T14:47:29;100112.97;;;14.80;100.00
32033;BME280;31720;52.638;9.216;2023-03-23T14:50:39;100109.91;;;14.64;100.00
32033;BME280;31720;52.638;9.216;2023-03-23T14:53:40;100116.16;;;14.63;100.00
32033;BME280;31720;52.638;9.216;2023-03-23T14:56:43;100117.63;;;14.22;100.00
32033;BME280;31720;52.638;9.216;2023-03-23T14:59:46;100113.78;;;14.26;100.00
32033;BME280;31720;52.638;9.216;2023-03-23T15:02:51;100114.47;;;14.39;100.00
32033;BME280;31720;52.638;9.216;2023-03-23T15:05:56;100116.75;;;14.66;100.00
32033;BME280;31720;52.638;9.216;2023-03-23T15:09:01;100115.06;;;14.77;100.00
32033;BME280;31720;52.638;9.216;2023-03-23T15:12:05;100116.38;;;14.71;100.00
32033;BME280;31720;52.638;9.216;2023-03-23T15:15:19;100110.72;;;14.76;100.00
32033;BME280;31720;52.638;9.216;2023-03-23T15:18:29;100099.19;;;14.77;100.00
32033;BME280;31720;52.638;9.216;2023-03-23T15:21:33;100088.47;;;14.78;100.00
32033;BME280;31720;52.638;9.216;2023-03-23T15:24:38;100084.94;;;14.89;100.00
32033;BME280;31720;52.638;9.216;2023-03-23T15:27:42;100105.16;;;14.90;100.00
32033;BME280;31720;52.638;9.216;2023-03-23T15:30:49;100115.38;;;14.83;100.00
32033;BME280;31720;52.638;9.216;2023-03-23T15:34:02;100124.94;;;14.41;100.00
32033;BME280;31720;52.638;9.216;2023-03-23T15:37:17;100135.16;;;14.23;100.00
32033;BME280;31720;52.638;9.216;2023-03-23T15:40:20;100132.72;;;13.98;100.00
32033;BME280;31720;52.638;9.216;2023-03-23T15:43:25;100136.34;;;13.85;100.00
32033;BME280;31720;52.638;9.216;2023-03-23T15:46:28;100133.91;;;13.82;100.00
32033;BME280;31720;52.638;9.216;2023-03-23T15:49:30;100136.81;;;13.90;100.00
32033;BME280;31720;52.638;9.216;2023-03-23T15:52:31;100119.78;;;13.94;100.00
32033;BME280;31720;52.638;9.216;2023-03-23T15:55:36;100113.53;;;13.95;100.00
32033;BME280;31720;52.638;9.216;2023-03-23T15:58:39;100122.03;;;13.88;100.00
32033;BME280;31720;52.638;9.216;2023-03-23T16:01:41;100122.25;;;13.85;100.00